Time;durP1;ratioP1;P1;durP2;ratioP2;P2;SDS_P1;SDS_P2;PMS_P1;PMS_P2;Temp;Humidity;BMP_temperature;BMP_pressure;BME280_temperature;BME280_humidity;BME280_pressure;Samples;Min_cycle;Max_cycle;Signal;HPM_P1;HPM_P2
2022/07/29 00:02:21;;;;;;;1.57;0.93;;;;;;;15.10;100.00;102088.88;5063458;28;20191;-76
2022/07/29 00:04:47;;;;;;;3.43;1.13;;;;;;;14.83;100.00;102044.63;5063686;28;20622;-75
2022/07/29 00:07:12;;;;;;;1.20;0.83;;;;;;;14.46;100.00;101969.19;5064469;28;20655;-75
2022/07/29 00:09:37;;;;;;;0.80;0.73;;;;;;;15.10;100.00;102083.47;5064825;28;20203;-75
2022/07/29 00:12:03;;;;;;;1.10;1.00;;;;;;;14.30;100.00;101941.66;5063574;28;20537;-76
2022/07/29 00:14:29;;;;;;;1.03;0.90;;;;;;;14.17;100.00;101916.22;5064081;28;20213;-75
2022/07/29 00:16:54;;;;;;;1.00;0.60;;;;;;;14.96;100.00;102041.22;5061787;28;20190;-76
2022/07/29 00:19:20;;;;;;;1.20;0.90;;;;;;;14.99;100.00;102057.03;5059402;28;20210;-75
2022/07/29 00:21:45;;;;;;;1.53;0.70;;;;;;;15.18;100.00;102066.25;5061330;28;21406;-76
2022/07/29 00:24:11;;;;;;;2.20;1.00;;;;;;;13.14;100.00;101755.88;5064410;28;20187;-76
2022/07/29 00:26:36;;;;;;;1.33;0.80;;;;;;;15.01;100.00;102039.56;5061449;28;20271;-75
2022/07/29 00:29:03;;;;;;;2.20;0.90;;;;;;;15.05;100.00;102054.34;5061512;28;20265;-75
2022/07/29 00:31:29;;;;;;;2.60;1.03;;;;;;;14.63;100.00;101971.59;5066947;28;20260;-76
2022/07/29 00:33:55;;;;;;;1.47;0.90;;;;;;;15.11;100.00;102047.31;5064609;28;20806;-75
2022/07/29 00:36:21;;;;;;;1.10;0.80;;;;;;;14.45;100.00;101972.06;5066624;28;20218;-75
2022/07/29 00:38:51;;;;;;;0.93;0.80;;;;;;;14.81;100.00;102030.50;5058460;28;21173;-76
2022/07/29 00:41:18;;;;;;;2.40;0.87;;;;;;;15.04;100.00;102014.00;5067081;28;20229;-76
2022/07/29 00:43:43;;;;;;;1.47;0.87;;;;;;;15.07;100.00;102049.59;5064569;28;20570;-78
2022/07/29 00:46:10;;;;;;;1.00;0.90;;;;;;;15.17;100.00;102045.69;5070463;28;20419;-76
2022/07/29 00:48:35;;;;;;;1.50;1.10;;;;;;;14.58;100.00;101974.03;5070066;28;20547;-76
2022/07/29 00:51:03;;;;;;;1.70;0.90;;;;;;;14.88;100.00;102048.41;5065621;28;20838;-77
2022/07/29 00:53:30;;;;;;;1.97;1.00;;;;;;;14.93;100.00;102050.53;5067628;28;20185;-76
2022/07/29 00:55:57;;;;;;;2.37;1.20;;;;;;;14.38;100.00;101928.84;5065891;28;20441;-77
2022/07/29 00:58:24;;;;;;;1.10;0.80;;;;;;;14.49;100.00;101981.44;5066905;28;20961;-76
2022/07/29 01:00:50;;;;;;;1.10;1.00;;;;;;;14.66;100.00;102000.91;5063281;28;20464;-76
2022/07/29 01:03:16;;;;;;;0.80;0.80;;;;;;;14.99;100.00;102038.94;5064206;28;20524;-76
2022/07/29 01:05:44;;;;;;;2.83;1.20;;;;;;;15.12;100.00;102027.34;5064323;28;20284;-76
2022/07/29 01:08:11;;;;;;;1.60;0.83;;;;;;;15.12;100.00;102033.59;5065332;28;20433;-76
2022/07/29 01:10:38;;;;;;;2.00;1.13;;;;;;;14.45;100.00;101950.47;5065720;28;20602;-76
2022/07/29 01:13:04;;;;;;;0.80;0.80;;;;;;;14.24;100.00;101867.72;5064661;28;20441;-76
2022/07/29 01:15:30;;;;;;;1.00;0.80;;;;;;;14.95;100.00;101993.59;5058429;28;20433;-75
2022/07/29 01:18:11;;;;;;;1.57;0.90;;;;;;;14.31;100.00;101882.06;5064080;28;20460;-76
2022/07/29 01:21:01;;;;;;;1.40;1.10;;;;;;;15.32;100.00;102012.06;5063485;28;20207;-75
2022/07/29 01:23:35;;;;;;;1.27;0.90;;;;;;;15.20;100.00;102000.16;5066847;28;20429;-76
2022/07/29 01:26:31;;;;;;;1.50;1.03;;;;;;;14.99;100.00;101967.88;5064862;28;20451;-76
2022/07/29 01:29:23;;;;;;;1.50;0.80;;;;;;;15.24;100.00;101984.38;5063460;28;20425;-76
2022/07/29 01:31:56;;;;;;;1.10;0.80;;;;;;;15.19;100.00;101947.16;5062616;28;21363;-77
2022/07/29 01:34:27;;;;;;;1.77;0.97;;;;;;;15.22;100.00;101962.13;5064307;28;20437;-76
2022/07/29 01:37:06;;;;;;;2.30;0.80;;;;;;;15.19;100.00;101940.91;5063458;28;20440;-76
2022/07/29 01:39:34;;;;;;;1.63;1.13;;;;;;;15.44;100.00;101987.97;5063362;28;20449;-75
2022/07/29 01:42:14;;;;;;;2.10;1.10;;;;;;;14.88;100.00;101915.22;5062274;28;20454;-76
2022/07/29 01:44:48;;;;;;;1.40;1.00;;;;;;;15.09;100.00;101927.78;5062780;28;20518;-75
2022/07/29 01:47:20;;;;;;;2.03;1.00;;;;;;;14.54;100.00;101844.03;5062538;28;20436;-76
2022/07/29 01:49:50;;;;;;;2.43;1.10;;;;;;;15.17;100.00;101922.19;5058395;28;20510;-76
2022/07/29 01:52:23;;;;;;;1.90;1.13;;;;;;;14.67;100.00;101860.28;5057936;28;20956;-76
2022/07/29 01:55:00;;;;;;;1.47;1.00;;;;;;;15.30;100.00;101968.19;5062520;28;21033;-76
2022/07/29 01:57:29;;;;;;;2.00;1.10;;;;;;;15.19;100.00;101946.31;5062831;28;20824;-76
2022/07/29 01:59:57;;;;;;;2.30;1.03;;;;;;;15.48;100.00;101964.09;5053813;28;20461;-76
2022/07/29 02:02:23;;;;;;;3.23;1.37;;;;;;;14.84;100.00;101863.47;5067538;28;20430;-76
2022/07/29 02:04:50;;;;;;;2.80;1.10;;;;;;;14.77;100.00;101850.97;5062059;28;20429;-75
2022/07/29 02:07:19;;;;;;;1.27;1.00;;;;;;;14.05;100.00;101782.91;5062344;28;20482;-77
2022/07/29 02:09:47;;;;;;;1.73;0.90;;;;;;;14.50;100.00;101814.91;5060130;28;20902;-76
2022/07/29 02:12:16;;;;;;;1.30;1.00;;;;;;;15.08;100.00;101888.28;5065237;28;20835;-76
2022/07/29 02:14:47;;;;;;;1.50;1.30;;;;;;;15.25;100.00;101918.50;5056084;28;20832;-76
2022/07/29 02:17:15;;;;;;;2.00;1.10;;;;;;;15.48;100.00;101950.56;5058150;28;20471;-76
2022/07/29 02:19:43;;;;;;;0.70;0.70;;;;;;;14.58;100.00;101814.75;5061781;28;20472;-77
2022/07/29 02:22:11;;;;;;;2.83;1.00;;;;;;;15.45;100.00;101954.53;5059787;28;20440;-76
2022/07/29 02:24:39;;;;;;;2.10;1.10;;;;;;;15.21;100.00;101961.28;5064633;28;20437;-76
2022/07/29 02:27:07;;;;;;;2.30;1.30;;;;;;;14.83;100.00;101842.88;5064838;28;20425;-76
2022/07/29 02:29:34;;;;;;;2.30;0.90;;;;;;;14.79;100.00;101819.22;5063143;28;21055;-77
2022/07/29 02:32:03;;;;;;;1.20;1.10;;;;;;;14.07;100.00;101694.53;5061012;28;20495;-77
2022/07/29 02:34:29;;;;;;;2.20;1.10;;;;;;;15.05;100.00;101873.31;5065457;28;20452;-76
2022/07/29 02:36:55;;;;;;;2.43;0.90;;;;;;;15.66;100.00;101936.47;5058667;28;20487;-77
2022/07/29 02:39:23;;;;;;;1.83;0.93;;;;;;;15.58;100.00;101932.91;5067535;28;20468;-76
2022/07/29 02:41:57;;;;;;;1.37;0.90;;;;;;;15.28;100.00;101907.28;5068282;28;20795;-77
2022/07/29 02:44:25;;;;;;;3.40;1.00;;;;;;;15.45;100.00;101938.31;5066835;28;20486;-76
2022/07/29 02:46:57;;;;;;;2.80;0.90;;;;;;;15.63;100.00;101953.09;5060254;28;20490;-76
2022/07/29 02:49:25;;;;;;;2.50;1.50;;;;;;;15.58;100.00;101943.72;5061200;28;20430;-77
2022/07/29 02:52:24;;;;;;;4.57;1.77;;;;;;;15.37;100.00;101908.75;5063304;28;20448;-77
2022/07/29 02:55:07;;;;;;;1.43;0.90;;;;;;;15.62;100.00;101932.47;5064026;28;20432;-76
2022/07/29 02:57:40;;;;;;;2.40;1.00;;;;;;;15.20;100.00;101888.53;5065374;28;20456;-77
2022/07/29 03:00:08;;;;;;;2.10;1.10;;;;;;;14.85;100.00;101794.91;5056873;28;20510;-75
2022/07/29 03:02:37;;;;;;;1.77;1.10;;;;;;;15.52;100.00;101928.31;5061837;28;20466;-76
2022/07/29 03:05:04;;;;;;;2.20;1.20;;;;;;;14.99;100.00;101816.56;5077511;28;20434;-77
2022/07/29 03:07:31;;;;;;;1.70;0.97;;;;;;;15.32;100.00;101868.78;5057343;28;20448;-76
2022/07/29 03:09:58;;;;;;;1.77;1.13;;;;;;;15.31;100.00;101864.44;5059994;28;20493;-76
2022/07/29 03:12:24;;;;;;;2.77;1.17;;;;;;;15.32;100.00;101919.31;5064109;28;20512;-77
2022/07/29 03:14:50;;;;;;;1.30;1.07;;;;;;;15.22;100.00;101864.84;5058619;28;20455;-77
2022/07/29 03:17:16;;;;;;;2.50;1.50;;;;;;;14.70;100.00;101775.34;5055141;28;20472;-76
2022/07/29 03:19:42;;;;;;;3.70;1.47;;;;;;;15.37;100.00;101862.78;5061407;28;20461;-76
2022/07/29 03:24:36;;;;;;;1.20;0.90;;;;;;;15.66;100.00;101901.31;4994520;28;20233;-65
2022/07/29 03:27:03;;;;;;;3.30;1.40;;;;;;;15.57;100.00;101885.28;5002196;28;20447;-66
2022/07/29 03:29:29;;;;;;;7.33;1.70;;;;;;;15.59;100.00;101902.13;5002034;28;20455;-65
2022/07/29 03:31:55;;;;;;;2.00;1.10;;;;;;;15.66;100.00;101890.47;4997650;28;20448;-64
2022/07/29 03:34:20;;;;;;;2.07;1.37;;;;;;;15.27;100.00;101901.00;4999559;28;20472;-65
2022/07/29 03:36:46;;;;;;;3.57;1.17;;;;;;;15.29;100.00;101904.34;4997520;28;20236;-65
2022/07/29 03:39:15;;;;;;;4.73;1.20;;;;;;;15.27;100.00;101905.59;5001308;28;20688;-66
2022/07/29 03:41:44;;;;;;;3.27;0.90;;;;;;;15.42;100.00;101897.28;4986309;28;20231;-66
2022/07/29 03:44:10;;;;;;;1.00;0.90;;;;;;;15.31;100.00;101869.84;5001595;28;21060;-65
2022/07/29 03:46:37;;;;;;;2.30;1.00;;;;;;;15.36;100.00;101883.59;5001403;28;20439;-65
2022/07/29 03:49:04;;;;;;;1.70;1.17;;;;;;;15.40;100.00;101896.69;4995224;28;20520;-65
2022/07/29 03:51:30;;;;;;;1.00;0.93;;;;;;;15.43;100.00;101896.28;4999978;28;20452;-65
2022/07/29 03:53:56;;;;;;;4.20;1.20;;;;;;;15.34;100.00;101899.16;5000099;28;20463;-65
2022/07/29 03:56:23;;;;;;;1.50;0.90;;;;;;;15.15;100.00;101889.13;4983993;28;20189;-65
2022/07/29 03:58:52;;;;;;;1.60;1.10;;;;;;;15.29;100.00;101898.13;5000231;28;20224;-65
2022/07/29 04:01:19;;;;;;;2.03;1.30;;;;;;;15.05;100.00;101899.50;4999863;28;21056;-66
2022/07/29 04:03:45;;;;;;;1.23;1.13;;;;;;;15.07;100.00;101902.81;4994672;28;20517;-66
2022/07/29 04:06:12;;;;;;;7.57;1.27;;;;;;;14.75;100.00;101855.75;4998766;28;20448;-66
2022/07/29 04:08:37;;;;;;;1.47;1.00;;;;;;;14.96;100.00;101852.94;5000863;28;20822;-66
2022/07/29 04:11:04;;;;;;;1.67;1.20;;;;;;;14.92;100.00;101905.69;5000142;28;20523;-66
2022/07/29 04:13:30;;;;;;;1.57;1.13;;;;;;;15.10;100.00;101900.56;4985702;28;20217;-66
2022/07/29 04:15:56;;;;;;;2.70;1.40;;;;;;;15.27;100.00;101889.38;4999137;28;20447;-66
2022/07/29 04:18:21;;;;;;;1.53;1.00;;;;;;;15.02;100.00;101864.78;4999864;28;20478;-66
2022/07/29 04:20:46;;;;;;;4.80;1.40;;;;;;;15.40;100.00;101886.69;4996291;28;20187;-66
2022/07/29 04:23:12;;;;;;;1.60;1.27;;;;;;;15.31;100.00;101893.34;4993025;28;20248;-66
2022/07/29 04:25:39;;;;;;;2.40;1.07;;;;;;;15.38;100.00;101899.59;4989388;28;20287;-66
2022/07/29 04:28:05;;;;;;;3.07;1.30;;;;;;;15.28;100.00;101877.53;4982677;28;20196;-66
2022/07/29 04:30:32;;;;;;;1.80;1.20;;;;;;;15.59;100.00;101891.31;4991622;28;20490;-66
2022/07/29 04:32:58;;;;;;;0.87;0.87;;;;;;;15.43;100.00;101894.41;5000766;28;20474;-65
2022/07/29 04:35:24;;;;;;;2.93;0.90;;;;;;;15.43;100.00;101885.47;4998773;28;20440;-65
2022/07/29 04:37:49;;;;;;;1.63;0.97;;;;;;;15.22;100.00;101864.84;5000061;28;20477;-65
2022/07/29 04:40:15;;;;;;;2.60;1.20;;;;;;;15.31;100.00;101890.66;5002171;28;20675;-66
2022/07/29 04:42:40;;;;;;;1.97;1.10;;;;;;;14.69;100.00;101777.22;5000465;28;20294;-65
2022/07/29 04:45:06;;;;;;;1.43;1.10;;;;;;;14.92;100.00;101789.50;4982487;28;20275;-65
2022/07/29 04:47:31;;;;;;;2.00;1.03;;;;;;;15.25;100.00;101861.72;5002510;28;20190;-65
2022/07/29 04:49:57;;;;;;;2.20;1.00;;;;;;;15.46;100.00;101866.13;5004318;28;20572;-65
2022/07/29 04:52:23;;;;;;;2.00;1.10;;;;;;;15.46;100.00;101883.19;4998129;28;20205;-65
2022/07/29 04:54:49;;;;;;;3.03;1.10;;;;;;;15.56;100.00;101883.63;4996882;28;20228;-65
2022/07/29 04:57:14;;;;;;;1.10;0.80;;;;;;;15.60;100.00;101892.16;5001564;28;20309;-65
2022/07/29 04:59:40;;;;;;;1.77;1.10;;;;;;;15.73;100.00;101891.34;5003988;28;20535;-65
2022/07/29 05:02:05;;;;;;;2.13;1.10;;;;;;;15.50;100.00;101895.22;4986000;28;20676;-65
2022/07/29 05:04:31;;;;;;;1.53;1.23;;;;;;;14.86;100.00;101787.63;5004947;28;20565;-65
2022/07/29 05:06:56;;;;;;;1.37;1.00;;;;;;;15.52;100.00;101900.44;4998542;28;20244;-65
2022/07/29 05:09:22;;;;;;;0.80;0.80;;;;;;;15.75;100.00;101891.97;4999302;28;20646;-66
2022/07/29 05:11:47;;;;;;;2.20;1.33;;;;;;;15.60;100.00;101889.44;4999232;28;20193;-65
2022/07/29 05:14:13;;;;;;;6.30;1.23;;;;;;;15.67;100.00;101887.56;5004229;28;20209;-66
2022/07/29 05:16:41;;;;;;;1.67;1.07;;;;;;;15.66;100.00;101893.19;5003141;28;20220;-66
2022/07/29 05:19:07;;;;;;;2.73;1.10;;;;;;;15.67;100.00;101892.97;5000141;28;22463;-66
2022/07/29 05:21:33;;;;;;;1.43;1.00;;;;;;;15.57;100.00;101887.16;5002882;28;20436;-65
2022/07/29 05:23:58;;;;;;;1.60;1.00;;;;;;;15.33;100.00;101877.72;5002237;28;20244;-66
2022/07/29 05:26:24;;;;;;;1.33;1.10;;;;;;;15.64;100.00;101884.44;4999075;28;20708;-65
2022/07/29 05:28:49;;;;;;;1.60;1.13;;;;;;;15.23;100.00;101807.88;5004208;28;20227;-65
2022/07/29 05:31:15;;;;;;;4.30;1.30;;;;;;;15.74;100.00;101883.03;5002826;28;20193;-66
2022/07/29 05:33:41;;;;;;;1.10;0.90;;;;;;;15.78;100.00;101878.03;5001551;28;20217;-66
2022/07/29 05:36:07;;;;;;;1.90;1.00;;;;;;;15.80;100.00;101892.19;4994452;28;20239;-65
2022/07/29 05:38:35;;;;;;;1.80;1.10;;;;;;;15.64;100.00;101884.44;4999384;28;20964;-66
2022/07/29 05:41:01;;;;;;;2.13;1.00;;;;;;;15.14;100.00;101772.09;4999544;28;20196;-66
2022/07/29 05:43:28;;;;;;;2.53;1.10;;;;;;;15.87;100.00;101873.25;5000416;28;20951;-66
2022/07/29 05:45:54;;;;;;;3.93;1.50;;;;;;;15.69;100.00;101880.13;4999731;28;20272;-65
2022/07/29 05:48:19;;;;;;;1.50;1.17;;;;;;;15.88;100.00;101885.72;5004175;28;20897;-66
2022/07/29 05:50:44;;;;;;;5.70;1.20;;;;;;;15.82;100.00;101877.41;5002297;28;20189;-67
2022/07/29 05:53:10;;;;;;;1.40;1.10;;;;;;;15.80;100.00;101886.78;4999813;28;20221;-67
2022/07/29 05:55:35;;;;;;;2.27;1.20;;;;;;;15.93;100.00;101881.34;5002081;28;20239;-67
2022/07/29 05:58:00;;;;;;;3.43;1.00;;;;;;;15.78;100.00;101850.97;4997970;28;20248;-67
2022/07/29 06:00:26;;;;;;;2.60;1.30;;;;;;;15.94;100.00;101853.28;5000662;28;20189;-67
2022/07/29 06:02:51;;;;;;;1.93;1.10;;;;;;;16.14;100.00;101874.03;4992430;28;20210;-67
2022/07/29 06:05:17;;;;;;;2.63;1.40;;;;;;;15.95;100.00;101883.88;4998893;28;20197;-67
2022/07/29 06:07:42;;;;;;;1.80;1.03;;;;;;;15.99;100.00;101845.34;4996554;28;20232;-67
2022/07/29 06:10:09;;;;;;;2.13;1.40;;;;;;;16.08;100.00;101839.69;4995481;28;20201;-67
2022/07/29 06:12:34;;;;;;;2.27;1.40;;;;;;;15.69;100.00;101758.41;4998990;28;20244;-66
2022/07/29 06:15:00;;;;;;;1.53;1.20;;;;;;;16.32;100.00;101868.81;4994803;28;20883;-67
2022/07/29 06:17:25;;;;;;;2.23;1.20;;;;;;;16.15;100.00;101845.94;4994041;28;20928;-66
2022/07/29 06:19:50;;;;;;;2.33;1.03;;;;;;;16.32;100.00;101866.13;4991942;28;20192;-66
2022/07/29 06:22:17;;;;;;;2.40;1.00;;;;;;;16.40;100.00;101857.78;4998642;28;20248;-67
2022/07/29 06:24:43;;;;;;;2.00;1.03;;;;;;;16.32;100.00;101859.88;4997095;28;20709;-67
2022/07/29 06:27:10;;;;;;;1.70;1.13;;;;;;;16.31;100.00;101845.47;4991670;28;20494;-67
2022/07/29 06:29:36;;;;;;;4.63;1.43;;;;;;;16.50;100.00;101866.25;5002319;28;20733;-67
2022/07/29 06:32:02;;;;;;;4.20;1.33;;;;;;;16.51;100.00;101869.78;5001958;28;20910;-67
2022/07/29 06:34:28;;;;;;;2.73;1.57;;;;;;;16.60;100.00;101867.69;4977764;28;21128;-67
2022/07/29 06:36:53;;;;;;;3.13;1.20;;;;;;;16.53;100.00;101865.00;4987098;28;20447;-66
2022/07/29 06:39:19;;;;;;;1.50;1.17;;;;;;;16.71;100.00;101869.72;4993511;28;20208;-67
2022/07/29 06:41:50;;;;;;;2.40;1.10;;;;;;;16.71;100.00;101872.44;4993709;28;20197;-67
2022/07/29 06:44:16;;;;;;;2.83;1.33;;;;;;;16.66;100.00;101864.13;4993433;28;20213;-67
2022/07/29 06:46:42;;;;;;;2.00;1.10;;;;;;;16.74;100.00;101866.59;5001058;28;20445;-67
2022/07/29 06:49:07;;;;;;;1.90;1.20;;;;;;;16.75;100.00;101859.28;5004411;28;20479;-65
2022/07/29 06:51:33;;;;;;;1.80;1.17;;;;;;;16.79;100.00;101866.00;4988943;28;20321;-66
2022/07/29 06:54:00;;;;;;;2.50;1.20;;;;;;;16.57;100.00;101849.16;5001707;28;20210;-66
2022/07/29 06:56:26;;;;;;;1.53;1.13;;;;;;;16.94;100.00;101870.06;4993515;28;20268;-66
2022/07/29 06:58:51;;;;;;;1.83;1.20;;;;;;;16.80;100.00;101856.81;5002896;28;20558;-66
2022/07/29 07:01:17;;;;;;;3.10;1.17;;;;;;;16.87;100.00;101863.88;4987702;28;20197;-66
2022/07/29 07:03:42;;;;;;;2.40;1.40;;;;;;;16.88;100.00;101867.41;4997262;28;20427;-66
2022/07/29 07:06:08;;;;;;;1.97;1.27;;;;;;;16.87;100.00;101839.47;5000237;28;20193;-66
2022/07/29 07:08:33;;;;;;;5.20;1.77;;;;;;;17.02;100.00;101863.56;4997187;28;20189;-66
2022/07/29 07:10:59;;;;;;;3.33;1.70;;;;;;;16.84;100.00;101858.88;4985587;28;20228;-66
2022/07/29 07:13:24;;;;;;;3.07;1.37;;;;;;;16.92;100.00;101841.53;4977737;28;20220;-66
2022/07/29 07:15:51;;;;;;;2.10;1.43;;;;;;;17.12;100.00;101855.78;4992120;28;20716;-66
2022/07/29 07:18:18;;;;;;;2.30;1.70;;;;;;;17.17;100.00;101853.25;4993501;28;20361;-66
2022/07/29 07:20:44;;;;;;;4.77;1.23;;;;;;;17.30;100.00;101856.94;4999403;28;21034;-66
2022/07/29 07:23:09;;;;;;;1.80;1.20;;;;;;;16.92;100.00;101825.25;4996701;28;20501;-67
2022/07/29 07:25:35;;;;;;;1.50;1.40;;;;;;;17.25;100.00;101854.06;4991159;28;21079;-66
2022/07/29 07:28:01;;;;;;;2.47;1.33;;;;;;;16.91;100.00;101810.06;4993735;28;20181;-66
2022/07/29 07:30:27;;;;;;;4.00;1.80;;;;;;;17.10;100.00;101860.63;5001780;28;20576;-66
2022/07/29 07:32:52;;;;;;;3.43;1.30;;;;;;;17.25;100.00;101849.47;4999062;28;20315;-66
2022/07/29 07:35:18;;;;;;;1.80;1.00;;;;;;;17.36;100.00;101829.78;4995756;28;20270;-66
2022/07/29 07:37:43;;;;;;;2.73;2.10;;;;;;;17.28;100.00;101810.25;4996413;28;20224;-66
2022/07/29 07:40:11;;;;;;;1.83;1.33;;;;;;;17.48;100.00;101832.63;4998056;28;20196;-67
2022/07/29 07:42:37;;;;;;;3.93;1.30;;;;;;;17.74;100.00;101864.13;4975633;28;21332;-66
2022/07/29 07:45:04;;;;;;;3.10;1.23;;;;;;;17.81;100.00;101864.09;4979332;28;20914;-67
2022/07/29 07:47:30;;;;;;;3.47;1.20;;;;;;;17.90;100.00;101857.34;4982560;28;20779;-67
2022/07/29 07:49:55;;;;;;;2.40;1.37;;;;;;;17.63;100.00;101807.88;5001423;28;20443;-66
2022/07/29 07:52:21;;;;;;;3.90;1.90;;;;;;;17.86;100.00;101872.41;4992908;28;20213;-66
2022/07/29 07:54:48;;;;;;;1.33;1.00;;;;;;;18.09;100.00;101865.53;4994039;28;20280;-66
2022/07/29 07:57:14;;;;;;;2.93;1.33;;;;;;;18.11;100.00;101869.69;4991380;28;20440;-67
2022/07/29 07:59:40;;;;;;;2.17;1.60;;;;;;;18.20;100.00;101870.22;4994561;28;20480;-66
2022/07/29 08:02:06;;;;;;;3.00;1.30;;;;;;;18.09;100.00;101863.66;4985048;28;20445;-66
2022/07/29 08:04:32;;;;;;;2.87;1.20;;;;;;;18.26;100.00;101864.72;4996523;28;20521;-67
2022/07/29 08:06:58;;;;;;;3.93;1.60;;;;;;;18.12;100.00;101833.31;4997638;28;20765;-66
2022/07/29 08:09:25;;;;;;;6.00;1.33;;;;;;;18.50;100.00;101857.56;5000261;28;20193;-66
2022/07/29 08:11:50;;;;;;;5.53;1.50;;;;;;;18.36;100.00;101822.63;5001734;28;20439;-67
2022/07/29 08:14:16;;;;;;;2.80;1.53;;;;;;;18.62;100.00;101838.59;5001558;28;20994;-67
2022/07/29 08:16:42;;;;;;;4.27;1.30;;;;;;;18.76;100.00;101846.63;5003308;28;20607;-67
2022/07/29 08:19:08;;;;;;;2.70;1.23;;;;;;;18.81;100.00;101847.59;5005399;28;20212;-67
2022/07/29 08:21:34;;;;;;;2.40;1.53;;;;;;;18.61;100.00;101814.38;4995970;28;20439;-67
2022/07/29 08:26:44;;;;;;;3.27;1.27;;;;;;;18.66;100.00;101811.78;5003299;28;20219;-67
2022/07/29 08:29:10;;;;;;;2.13;1.30;;;;;;;18.50;100.00;101786.91;5002990;28;20444;-67
2022/07/29 08:31:37;;;;;;;3.80;1.17;;;;;;;18.84;100.00;101835.44;5003346;28;20303;-67
2022/07/29 08:34:03;;;;;;;2.17;1.20;;;;;;;18.46;100.00;101760.47;5004945;28;20518;-67
2022/07/29 08:36:29;;;;;;;4.67;1.47;;;;;;;18.87;100.00;101832.25;4996842;28;21031;-66
2022/07/29 08:38:55;;;;;;;3.30;1.43;;;;;;;18.82;100.00;101821.25;4993251;28;20479;-67
2022/07/29 08:41:21;;;;;;;1.43;1.27;;;;;;;19.06;100.00;101843.91;4997979;28;20447;-67
2022/07/29 08:43:48;;;;;;;2.30;1.63;;;;;;;19.11;100.00;101847.59;4997368;28;20209;-66
2022/07/29 08:46:14;;;;;;;3.23;1.57;;;;;;;19.12;100.00;101851.13;5002800;28;20503;-66
2022/07/29 08:48:41;;;;;;;3.33;1.40;;;;;;;18.74;100.00;101808.78;5001281;28;20449;-66
2022/07/29 08:51:08;;;;;;;3.33;1.47;;;;;;;18.83;100.00;101820.19;4995479;28;20447;-67
2022/07/29 08:53:34;;;;;;;2.50;1.30;;;;;;;19.06;100.00;101839.28;4994188;28;20516;-67
2022/07/29 08:56:01;;;;;;;2.77;1.60;;;;;;;19.15;100.00;101837.94;4997300;28;20736;-67
2022/07/29 08:58:32;;;;;;;2.20;0.97;;;;;;;19.25;100.00;101833.81;4998129;28;20324;-67
2022/07/29 09:01:00;;;;;;;4.20;1.77;;;;;;;19.30;100.00;101831.22;4994520;28;20522;-66
2022/07/29 09:03:31;;;;;;;1.33;1.13;;;;;;;19.37;100.00;101831.94;5002061;28;21051;-67
2022/07/29 09:05:58;;;;;;;2.97;1.50;;;;;;;18.93;100.00;101774.25;5000981;28;20521;-67
2022/07/29 09:08:24;;;;;;;4.53;1.47;;;;;;;18.94;100.00;101782.16;5002174;28;20436;-66
2022/07/29 09:10:51;;;;;;;4.50;1.60;;;;;;;19.39;100.00;101843.44;5002069;28;20482;-66
2022/07/29 09:13:16;;;;;;;5.07;1.93;;;;;;;19.30;100.00;101831.22;4997211;28;20464;-66
2022/07/29 09:15:41;;;;;;;2.50;1.20;;;;;;;19.23;100.00;101816.88;4999587;28;20850;-67
2022/07/29 09:18:07;;;;;;;1.90;1.27;;;;;;;19.54;100.00;101840.25;4996571;28;20204;-67
2022/07/29 09:23:17;;;;;;;3.53;1.27;;;;;;;19.50;100.00;101848.06;4999405;28;20723;-67
2022/07/29 09:25:42;;;;;;;4.70;1.60;;;;;;;19.52;100.00;101847.81;4999265;28;20435;-67
2022/07/29 09:28:08;;;;;;;2.63;1.33;;;;;;;19.57;100.00;101850.69;5013125;22;20217;-75
2022/07/29 09:30:34;;;;;;;3.47;1.67;;;;;;;19.18;100.00;101799.38;5019318;28;20189;-76
2022/07/29 09:33:02;;;;;;;1.87;1.47;;;;;;;19.24;100.00;101778.59;5033853;28;20455;-77
2022/07/29 09:35:28;;;;;;;3.63;1.50;;;;;;;19.18;100.00;101752.34;5019298;28;20184;-76
2022/07/29 09:37:54;;;;;;;3.83;1.63;;;;;;;19.49;100.00;101807.47;5017988;28;20458;-76
2022/07/29 09:40:30;;;;;;;1.87;1.30;;;;;;;19.88;100.00;101852.28;5021653;28;20454;-76
2022/07/29 09:42:57;;;;;;;2.13;1.80;;;;;;;19.85;100.00;101859.03;5021406;28;20189;-78
2022/07/29 09:45:33;;;;;;;4.03;1.70;;;;;;;19.88;100.00;101846.00;5021730;28;20442;-78
2022/07/29 09:48:12;;;;;;;3.67;1.80;;;;;;;20.00;100.00;101846.84;5022698;28;20477;-78
2022/07/29 09:50:42;;;;;;;2.07;1.20;;;;;;;19.91;100.00;101846.34;5021402;28;20485;-78
2022/07/29 09:53:11;;;;;;;3.47;1.30;;;;;;;19.56;100.00;101784.53;5021559;28;20442;-78
2022/07/29 09:55:48;;;;;;;1.80;1.00;;;;;;;20.00;100.00;101822.31;5022533;28;20444;-78
2022/07/29 09:58:19;;;;;;;2.53;1.27;;;;;;;20.19;100.00;101823.00;5022095;28;22040;-78
2022/07/29 10:00:46;;;;;;;1.60;1.33;;;;;;;19.98;100.00;101799.94;5023298;28;20431;-79
2022/07/29 10:03:12;;;;;;;6.23;1.33;;;;;;;20.28;100.00;101821.59;5021540;28;20432;-78
2022/07/29 10:05:39;;;;;;;3.13;1.60;;;;;;;18.78;100.00;101608.06;5022047;28;20456;-78
2022/07/29 10:08:05;;;;;;;1.87;1.10;;;;;;;19.71;100.00;101739.72;5018403;28;20447;-77
2022/07/29 10:10:33;;;;;;;4.40;1.77;;;;;;;20.32;100.00;101826.31;5021582;28;20428;-78
2022/07/29 10:13:05;;;;;;;5.40;1.70;;;;;;;20.01;100.00;101748.53;5015102;28;20231;-78
2022/07/29 10:15:32;;;;;;;1.47;1.10;;;;;;;20.01;100.00;101767.59;5014909;28;20439;-78
2022/07/29 10:17:59;;;;;;;2.53;1.40;;;;;;;20.40;100.00;101829.75;5015883;28;20838;-77
2022/07/29 10:20:25;;;;;;;2.90;1.57;;;;;;;20.23;100.00;101799.69;5016005;28;20590;-77
2022/07/29 10:22:52;;;;;;;5.60;1.77;;;;;;;20.09;100.00;101755.53;5017398;28;20580;-77
2022/07/29 10:25:18;;;;;;;4.17;1.50;;;;;;;20.11;100.00;101755.31;5016080;28;20530;-78
2022/07/29 10:27:46;;;;;;;3.00;2.07;;;;;;;20.32;100.00;101771.81;5020325;28;20523;-77
2022/07/29 10:30:13;;;;;;;3.00;1.30;;;;;;;20.76;100.00;101814.94;5019362;28;20435;-78
2022/07/29 10:33:08;;;;;;;2.90;1.10;;;;;;;20.77;100.00;101811.13;5023018;28;20424;-78
2022/07/29 10:35:52;;;;;;;3.53;1.70;;;;;;;20.84;100.00;101822.75;5003468;28;20431;-78
2022/07/29 10:39:14;;;;;;;2.07;1.50;;;;;;;20.80;100.00;101788.88;5019651;28;20462;-78
2022/07/29 10:41:55;;;;;;;1.80;1.37;;;;;;;20.66;100.00;101752.88;4973041;28;20582;-78
2022/07/29 10:44:23;;;;;;;2.47;1.20;;;;;;;20.93;100.00;101787.72;4976588;28;21074;-77
2022/07/29 10:46:50;;;;;;;3.10;1.50;;;;;;;20.84;100.00;101742.84;5006014;28;20502;-77
2022/07/29 10:49:17;;;;;;;3.50;1.43;;;;;;;21.31;100.00;101811.59;5021212;28;20519;-77
2022/07/29 10:51:59;;;;;;;5.53;1.47;;;;;;;21.30;100.00;101809.13;5017530;28;20439;-77
2022/07/29 10:54:42;;;;;;;4.10;1.50;;;;;;;21.09;100.00;101780.63;5021692;28;20869;-78
2022/07/29 10:57:14;;;;;;;3.70;1.57;;;;;;;21.32;100.00;101806.94;5021251;28;20408;-78
2022/07/29 10:59:41;;;;;;;1.40;1.30;;;;;;;21.41;100.00;101809.06;5014863;28;20498;-78
2022/07/29 11:02:39;;;;;;;3.27;1.60;;;;;;;21.48;100.00;101797.97;5019293;28;20939;-78
2022/07/29 11:05:05;;;;;;;2.33;1.20;;;;;;;21.48;100.00;101791.69;5018013;28;20431;-78
2022/07/29 11:07:34;;;;;;;2.63;1.30;;;;;;;20.99;100.00;101741.19;5019528;28;20526;-77
2022/07/29 11:10:15;;;;;;;5.23;1.30;;;;;;;21.33;100.00;101801.25;5016276;28;20435;-78
2022/07/29 11:12:43;;;;;;;3.27;1.20;;;;;;;21.22;100.00;101802.97;5018399;28;20795;-78
2022/07/29 11:15:16;;;;;;;4.27;1.70;;;;;;;21.23;100.00;101801.06;5007380;28;20441;-78
2022/07/29 11:17:54;;;;;;;2.90;1.87;;;;;;;21.29;100.00;101797.38;5015456;28;20455;-77
2022/07/29 11:20:38;;;;;;;3.87;1.40;;;;;;;21.26;100.00;101794.28;5015232;28;20470;-77
2022/07/29 11:23:24;;;;;;;1.47;1.17;;;;;;;21.25;100.00;101800.84;5014655;28;20946;-78
2022/07/29 11:26:19;;;;;;;1.63;1.23;;;;;;;21.41;100.00;101797.31;5016006;28;20916;-78
2022/07/29 11:29:05;;;;;;;2.30;1.33;;;;;;;21.48;100.00;101791.69;5014196;28;21055;-77
2022/07/29 11:31:32;;;;;;;4.33;1.27;;;;;;;21.53;100.00;101794.50;5016337;28;20427;-77